sensor_id;sensor_type;location;lat;lon;timestamp;pressure;altitude;pressure_sealevel;temperature;humidity
69153;BME280;56261;51.580;4.578;2023-04-23T00:00:47;100759.94;;;8.04;100.00
69153;BME280;56261;51.580;4.578;2023-04-23T00:03:13;100752.00;;;8.12;100.00
69153;BME280;56261;51.580;4.578;2023-04-23T00:05:39;100753.50;;;8.15;100.00
69153;BME280;56261;51.580;4.578;2023-04-23T00:08:07;100749.03;;;8.15;100.00
69153;BME280;56261;51.580;4.578;2023-04-23T00:10:34;100750.47;;;8.09;100.00
69153;BME280;56261;51.580;4.578;2023-04-23T00:13:00;100740.53;;;8.11;100.00
69153;BME280;56261;51.580;4.578;2023-04-23T00:15:26;100742.72;;;8.16;100.00
69153;BME280;56261;51.580;4.578;2023-04-23T00:17:51;100730.13;;;8.18;100.00
69153;BME280;56261;51.580;4.578;2023-04-23T00:20:17;100731.28;;;8.16;100.00
69153;BME280;56261;51.580;4.578;2023-04-23T00:22:43;100726.25;;;8.13;100.00
69153;BME280;56261;51.580;4.578;2023-04-23T00:25:09;100727.41;;;8.10;100.00
69153;BME280;56261;51.580;4.578;2023-04-23T00:27:35;100725.97;;;8.16;100.00
69153;BME280;56261;51.580;4.578;2023-04-23T00:30:01;100724.81;;;8.18;100.00
69153;BME280;56261;51.580;4.578;2023-04-23T00:32:27;100726.63;;;8.18;100.00
69153;BME280;56261;51.580;4.578;2023-04-23T00:34:53;100727.59;;;8.08;100.00
69153;BME280;56261;51.580;4.578;2023-04-23T00:37:19;100722.41;;;8.07;100.00
69153;BME280;56261;51.580;4.578;2023-04-23T00:39:44;100727.78;;;8.15;100.00
69153;BME280;56261;51.580;4.578;2023-04-23T00:42:10;100718.06;;;8.24;100.00
69153;BME280;56261;51.580;4.578;2023-04-23T00:44:39;100716.69;;;8.20;100.00
69153;BME280;56261;51.580;4.578;2023-04-23T00:47:06;100716.22;;;8.24;100.00
69153;BME280;56261;51.580;4.578;2023-04-23T00:49:33;100715.00;;;8.19;100.00
69153;BME280;56261;51.580;4.578;2023-04-23T00:51:58;100708.06;;;8.26;100.00
69153;BME280;56261;51.580;4.578;2023-04-23T00:54:25;100703.47;;;8.36;100.00
69153;BME280;56261;51.580;4.578;2023-04-23T00:56:51;100695.31;;;8.29;100.00
69153;BME280;56261;51.580;4.578;2023-04-23T00:59:17;100705.00;;;8.39;100.00
69153;BME280;56261;51.580;4.578;2023-04-23T01:01:42;100703.56;;;8.44;100.00
69153;BME280;56261;51.580;4.578;2023-04-23T01:04:13;100694.25;;;8.40;100.00
69153;BME280;56261;51.580;4.578;2023-04-23T01:06:40;100697.00;;;8.39;100.00
69153;BME280;56261;51.580;4.578;2023-04-23T01:09:07;100705.56;;;8.50;100.00
69153;BME280;56261;51.580;4.578;2023-04-23T01:11:41;100699.66;;;8.65;100.00
69153;BME280;56261;51.580;4.578;2023-04-23T01:14:07;100705.16;;;8.71;100.00
69153;BME280;56261;51.580;4.578;2023-04-23T01:16:34;100696.19;;;8.72;100.00
69153;BME280;56261;51.580;4.578;2023-04-23T01:19:00;100694.34;;;8.65;100.00
69153;BME280;56261;51.580;4.578;2023-04-23T01:21:27;100692.34;;;8.67;100.00
69153;BME280;56261;51.580;4.578;2023-04-23T01:23:53;100688.50;;;8.61;100.00
69153;BME280;56261;51.580;4.578;2023-04-23T01:26:19;100692.84;;;8.62;100.00
69153;BME280;56261;51.580;4.578;2023-04-23T01:28:45;100676.84;;;8.54;100.00
69153;BME280;56261;51.580;4.578;2023-04-23T01:31:10;100703.75;;;8.51;100.00
69153;BME280;56261;51.580;4.578;2023-04-23T01:33:39;100700.91;;;8.44;100.00
69153;BME280;56261;51.580;4.578;2023-04-23T01:36:06;100702.66;;;8.62;100.00
69153;BME280;56261;51.580;4.578;2023-04-23T01:38:33;100695.59;;;8.52;100.00
69153;BME280;56261;51.580;4.578;2023-04-23T01:41:00;100699.41;;;8.50;100.00
69153;BME280;56261;51.580;4.578;2023-04-23T01:43:25;100696.63;;;8.51;100.00
69153;BME280;56261;51.580;4.578;2023-04-23T01:45:51;100695.78;;;8.51;100.00
69153;BME280;56261;51.580;4.578;2023-04-23T01:48:17;100694.09;;;8.50;100.00
69153;BME280;56261;51.580;4.578;2023-04-23T01:50:43;100710.22;;;8.48;100.00
69153;BME280;56261;51.580;4.578;2023-04-23T01:53:09;100694.78;;;8.52;100.00
69153;BME280;56261;51.580;4.578;2023-04-23T01:55:37;100708.41;;;8.49;100.00
69153;BME280;56261;51.580;4.578;2023-04-23T01:58:03;100698.13;;;8.54;100.00
69153;BME280;56261;51.580;4.578;2023-04-23T02:00:29;100697.25;;;8.45;100.00
69153;BME280;56261;51.580;4.578;2023-04-23T02:02:55;100693.13;;;8.51;100.00
69153;BME280;56261;51.580;4.578;2023-04-23T02:05:20;100694.72;;;8.44;100.00
69153;BME280;56261;51.580;4.578;2023-04-23T02:07:48;100687.63;;;8.44;100.00
69153;BME280;56261;51.580;4.578;2023-04-23T02:10:14;100692.94;;;8.52;100.00
69153;BME280;56261;51.580;4.578;2023-04-23T02:12:40;100678.16;;;8.42;100.00
69153;BME280;56261;51.580;4.578;2023-04-23T02:15:08;100678.78;;;8.44;100.00
69153;BME280;56261;51.580;4.578;2023-04-23T02:17:34;100689.78;;;8.49;100.00
69153;BME280;56261;51.580;4.578;2023-04-23T02:19:59;100683.47;;;8.42;100.00
69153;BME280;56261;51.580;4.578;2023-04-23T02:22:25;100677.13;;;8.43;100.00
69153;BME280;56261;51.580;4.578;2023-04-23T02:24:52;100668.16;;;8.44;100.00
69153;BME280;56261;51.580;4.578;2023-04-23T02:27:18;100684.44;;;8.41;100.00
69153;BME280;56261;51.580;4.578;2023-04-23T02:29:44;100665.28;;;8.37;100.00
69153;BME280;56261;51.580;4.578;2023-04-23T02:32:10;100679.25;;;8.39;100.00
69153;BME280;56261;51.580;4.578;2023-04-23T02:34:36;100676.88;;;8.28;100.00
69153;BME280;56261;51.580;4.578;2023-04-23T02:37:02;100668.59;;;8.31;100.00
69153;BME280;56261;51.580;4.578;2023-04-23T02:39:29;100679.13;;;8.41;100.00
69153;BME280;56261;51.580;4.578;2023-04-23T02:41:55;100672.97;;;8.40;100.00
69153;BME280;56261;51.580;4.578;2023-04-23T02:44:21;100672.06;;;8.31;100.00
69153;BME280;56261;51.580;4.578;2023-04-23T02:46:46;100666.91;;;8.30;100.00
69153;BME280;56261;51.580;4.578;2023-04-23T02:49:12;100671.19;;;8.23;100.00
69153;BME280;56261;51.580;4.578;2023-04-23T02:51:38;100668.81;;;8.11;100.00
69153;BME280;56261;51.580;4.578;2023-04-23T02:54:04;100667.19;;;8.19;100.00
69153;BME280;56261;51.580;4.578;2023-04-23T02:56:30;100661.88;;;8.19;100.00
69153;BME280;56261;51.580;4.578;2023-04-23T02:58:55;100670.84;;;8.18;100.00
69153;BME280;56261;51.580;4.578;2023-04-23T03:01:21;100663.50;;;8.11;100.00
69153;BME280;56261;51.580;4.578;2023-04-23T03:03:46;100672.69;;;8.17;100.00
69153;BME280;56261;51.580;4.578;2023-04-23T03:06:11;100659.75;;;8.22;100.00
69153;BME280;56261;51.580;4.578;2023-04-23T03:08:37;100658.66;;;8.07;100.00
69153;BME280;56261;51.580;4.578;2023-04-23T03:11:02;100668.16;;;8.09;100.00
69153;BME280;56261;51.580;4.578;2023-04-23T03:13:31;100660.69;;;8.13;100.00
69153;BME280;56261;51.580;4.578;2023-04-23T03:15:56;100655.47;;;8.03;100.00
69153;BME280;56261;51.580;4.578;2023-04-23T03:18:22;100664.50;;;8.10;100.00
69153;BME280;56261;51.580;4.578;2023-04-23T03:20:47;100653.88;;;8.10;100.00
69153;BME280;56261;51.580;4.578;2023-04-23T03:23:13;100661.19;;;8.08;100.00
69153;BME280;56261;51.580;4.578;2023-04-23T03:25:38;100655.19;;;8.06;100.00
69153;BME280;56261;51.580;4.578;2023-04-23T03:28:03;100657.66;;;8.08;100.00
69153;BME280;56261;51.580;4.578;2023-04-23T03:30:29;100649.88;;;8.06;100.00
69153;BME280;56261;51.580;4.578;2023-04-23T03:32:55;100657.16;;;8.04;100.00
69153;BME280;56261;51.580;4.578;2023-04-23T03:35:22;100660.44;;;7.98;100.00
69153;BME280;56261;51.580;4.578;2023-04-23T03:37:47;100665.06;;;7.96;100.00
69153;BME280;56261;51.580;4.578;2023-04-23T03:40:13;100664.78;;;7.99;100.00
69153;BME280;56261;51.580;4.578;2023-04-23T03:42:38;100665.28;;;8.03;100.00
69153;BME280;56261;51.580;4.578;2023-04-23T03:45:04;100663.91;;;7.90;100.00
69153;BME280;56261;51.580;4.578;2023-04-23T03:47:30;100656.56;;;7.84;100.00
69153;BME280;56261;51.580;4.578;2023-04-23T03:49:55;100665.91;;;7.97;100.00
69153;BME280;56261;51.580;4.578;2023-04-23T03:52:21;100669.09;;;8.00;100.00
69153;BME280;56261;51.580;4.578;2023-04-23T03:54:46;100665.91;;;7.97;100.00
69153;BME280;56261;51.580;4.578;2023-04-23T03:57:12;100654.59;;;7.95;100.00
69153;BME280;56261;51.580;4.578;2023-04-23T03:59:37;100656.13;;;7.97;100.00
69153;BME280;56261;51.580;4.578;2023-04-23T04:02:03;100655.47;;;7.95;100.00
69153;BME280;56261;51.580;4.578;2023-04-23T04:04:29;100666.75;;;7.97;100.00
69153;BME280;56261;51.580;4.578;2023-04-23T04:06:56;100653.47;;;7.97;100.00
69153;BME280;56261;51.580;4.578;2023-04-23T04:09:22;100651.59;;;7.89;100.00
69153;BME280;56261;51.580;4.578;2023-04-23T04:11:47;100664.88;;;7.89;100.00
69153;BME280;56261;51.580;4.578;2023-04-23T04:14:13;100661.31;;;7.81;100.00
69153;BME280;56261;51.580;4.578;2023-04-23T04:16:38;100663.56;;;7.94;100.00
69153;BME280;56261;51.580;4.578;2023-04-23T04:19:04;100655.94;;;7.90;100.00
69153;BME280;56261;51.580;4.578;2023-04-23T04:21:30;100640.00;;;7.90;100.00
69153;BME280;56261;51.580;4.578;2023-04-23T04:23:56;100642.44;;;7.84;100.00
69153;BME280;56261;51.580;4.578;2023-04-23T04:26:21;100636.81;;;7.87;100.00
69153;BME280;56261;51.580;4.578;2023-04-23T04:28:47;100639.41;;;7.79;100.00
69153;BME280;56261;51.580;4.578;2023-04-23T04:31:13;100651.94;;;7.95;100.00
69153;BME280;56261;51.580;4.578;2023-04-23T04:33:40;100659.56;;;7.89;100.00
69153;BME280;56261;51.580;4.578;2023-04-23T04:36:06;100656.28;;;7.96;100.00
69153;BME280;56261;51.580;4.578;2023-04-23T04:38:33;100660.72;;;7.87;100.00
69153;BME280;56261;51.580;4.578;2023-04-23T04:41:02;100663.91;;;7.90;100.00
69153;BME280;56261;51.580;4.578;2023-04-23T04:43:27;100648.13;;;7.89;100.00
69153;BME280;56261;51.580;4.578;2023-04-23T04:45:53;100656.03;;;7.81;100.00
69153;BME280;56261;51.580;4.578;2023-04-23T04:48:18;100655.06;;;7.90;100.00
69153;BME280;56261;51.580;4.578;2023-04-23T04:50:44;100657.13;;;7.96;100.00
69153;BME280;56261;51.580;4.578;2023-04-23T04:53:10;100646.97;;;7.92;100.00
69153;BME280;56261;51.580;4.578;2023-04-23T04:55:36;100649.88;;;8.06;100.00
69153;BME280;56261;51.580;4.578;2023-04-23T04:58:01;100658.81;;;8.05;100.00
69153;BME280;56261;51.580;4.578;2023-04-23T05:00:28;100656.16;;;8.05;100.00
69153;BME280;56261;51.580;4.578;2023-04-23T05:02:57;100654.81;;;8.01;100.00
69153;BME280;56261;51.580;4.578;2023-04-23T05:05:23;100656.16;;;8.05;100.00
69153;BME280;56261;51.580;4.578;2023-04-23T05:07:49;100659.19;;;8.10;100.00
69153;BME280;56261;51.580;4.578;2023-04-23T05:10:15;100656.00;;;8.07;100.00
69153;BME280;56261;51.580;4.578;2023-04-23T05:12:41;100659.19;;;8.10;100.00
69153;BME280;56261;51.580;4.578;2023-04-23T05:15:11;100655.59;;;8.20;100.00
69153;BME280;56261;51.580;4.578;2023-04-23T05:17:40;100649.94;;;8.23;100.00
69153;BME280;56261;51.580;4.578;2023-04-23T05:20:07;100653.63;;;8.30;100.00
69153;BME280;56261;51.580;4.578;2023-04-23T05:22:39;100649.31;;;8.37;100.00
69153;BME280;56261;51.580;4.578;2023-04-23T05:25:06;100646.41;;;8.40;100.00
69153;BME280;56261;51.580;4.578;2023-04-23T05:27:32;100642.09;;;8.47;100.00
69153;BME280;56261;51.580;4.578;2023-04-23T05:29:57;100652.22;;;8.44;100.00
69153;BME280;56261;51.580;4.578;2023-04-23T05:32:23;100656.41;;;8.55;100.00
69153;BME280;56261;51.580;4.578;2023-04-23T05:34:49;100655.63;;;8.62;100.00
69153;BME280;56261;51.580;4.578;2023-04-23T05:37:15;100660.75;;;8.64;100.00
69153;BME280;56261;51.580;4.578;2023-04-23T05:39:40;100664.13;;;8.74;100.00
69153;BME280;56261;51.580;4.578;2023-04-23T05:42:05;100653.03;;;8.87;100.00
69153;BME280;56261;51.580;4.578;2023-04-23T05:44:31;100649.88;;;9.00;100.00
69153;BME280;56261;51.580;4.578;2023-04-23T05:46:56;100651.06;;;9.05;100.00
69153;BME280;56261;51.580;4.578;2023-04-23T05:49:21;100650.22;;;9.13;100.00
69153;BME280;56261;51.580;4.578;2023-04-23T05:51:47;100645.75;;;9.38;100.00
69153;BME280;56261;51.580;4.578;2023-04-23T05:54:12;100640.91;;;9.42;100.00
69153;BME280;56261;51.580;4.578;2023-04-23T05:56:38;100645.41;;;9.49;100.00
69153;BME280;56261;51.580;4.578;2023-04-23T05:59:03;100642.38;;;9.85;100.00
69153;BME280;56261;51.580;4.578;2023-04-23T06:01:28;100639.81;;;10.00;100.00
69153;BME280;56261;51.580;4.578;2023-04-23T06:03:54;100626.72;;;10.38;100.00
69153;BME280;56261;51.580;4.578;2023-04-23T06:06:19;100629.47;;;10.53;100.00
69153;BME280;56261;51.580;4.578;2023-04-23T06:08:44;100634.41;;;10.64;100.00
69153;BME280;56261;51.580;4.578;2023-04-23T06:11:10;100636.81;;;10.82;100.00
69153;BME280;56261;51.580;4.578;2023-04-23T06:13:35;100617.97;;;11.07;100.00
69153;BME280;56261;51.580;4.578;2023-04-23T06:16:06;100638.03;;;11.26;100.00
69153;BME280;56261;51.580;4.578;2023-04-23T06:18:31;100630.84;;;11.64;100.00
69153;BME280;56261;51.580;4.578;2023-04-23T06:20:57;100638.56;;;11.74;100.00
69153;BME280;56261;51.580;4.578;2023-04-23T06:23:23;100636.84;;;11.81;100.00
69153;BME280;56261;51.580;4.578;2023-04-23T06:25:48;100639.34;;;11.68;100.00
69153;BME280;56261;51.580;4.578;2023-04-23T06:28:14;100634.50;;;11.63;100.00
69153;BME280;56261;51.580;4.578;2023-04-23T06:30:40;100636.44;;;11.92;100.00
69153;BME280;56261;51.580;4.578;2023-04-23T06:33:07;100632.66;;;12.01;100.00
69153;BME280;56261;51.580;4.578;2023-04-23T06:35:33;100635.59;;;12.21;100.00
69153;BME280;56261;51.580;4.578;2023-04-23T06:37:58;100635.44;;;12.08;100.00
69153;BME280;56261;51.580;4.578;2023-04-23T06:40:24;100634.50;;;12.31;100.00
69153;BME280;56261;51.580;4.578;2023-04-23T06:42:49;100629.09;;;12.45;100.00
69153;BME280;56261;51.580;4.578;2023-04-23T06:45:15;100627.66;;;12.79;100.00
69153;BME280;56261;51.580;4.578;2023-04-23T06:47:40;100633.06;;;13.07;100.00
69153;BME280;56261;51.580;4.578;2023-04-23T06:50:06;100635.63;;;12.58;100.00
69153;BME280;56261;51.580;4.578;2023-04-23T06:52:35;100630.69;;;12.76;100.00
69153;BME280;56261;51.580;4.578;2023-04-23T06:55:01;100628.47;;;13.23;100.00
69153;BME280;56261;51.580;4.578;2023-04-23T06:57:27;100631.59;;;13.48;100.00
69153;BME280;56261;51.580;4.578;2023-04-23T06:59:52;100631.00;;;13.53;100.00
69153;BME280;56261;51.580;4.578;2023-04-23T07:02:18;100621.38;;;13.58;100.00
69153;BME280;56261;51.580;4.578;2023-04-23T07:04:43;100624.69;;;13.60;100.00
69153;BME280;56261;51.580;4.578;2023-04-23T07:07:09;100625.38;;;13.69;100.00
69153;BME280;56261;51.580;4.578;2023-04-23T07:09:34;100626.66;;;14.08;100.00
69153;BME280;56261;51.580;4.578;2023-04-23T07:12:00;100618.97;;;13.98;100.00
69153;BME280;56261;51.580;4.578;2023-04-23T07:14:26;100608.00;;;14.35;100.00
69153;BME280;56261;51.580;4.578;2023-04-23T07:16:51;100606.44;;;14.53;100.00
69153;BME280;56261;51.580;4.578;2023-04-23T07:19:18;100603.31;;;14.50;100.00
69153;BME280;56261;51.580;4.578;2023-04-23T07:21:44;100604.47;;;14.27;100.00
69153;BME280;56261;51.580;4.578;2023-04-23T07:24:09;100607.97;;;14.28;100.00
69153;BME280;56261;51.580;4.578;2023-04-23T07:26:35;100607.25;;;14.54;100.00
69153;BME280;56261;51.580;4.578;2023-04-23T07:29:02;100607.97;;;13.86;100.00
69153;BME280;56261;51.580;4.578;2023-04-23T07:31:28;100602.97;;;13.48;100.00
69153;BME280;56261;51.580;4.578;2023-04-23T07:33:54;100601.84;;;14.41;100.00
69153;BME280;56261;51.580;4.578;2023-04-23T07:36:20;100588.97;;;14.98;100.00
69153;BME280;56261;51.580;4.578;2023-04-23T07:38:46;100595.22;;;15.11;100.00
69153;BME280;56261;51.580;4.578;2023-04-23T07:41:11;100600.19;;;15.28;100.00
69153;BME280;56261;51.580;4.578;2023-04-23T07:43:37;100595.53;;;14.68;100.00
69153;BME280;56261;51.580;4.578;2023-04-23T07:46:03;100590.66;;;15.52;100.00
69153;BME280;56261;51.580;4.578;2023-04-23T07:48:29;100586.31;;;15.51;100.00
69153;BME280;56261;51.580;4.578;2023-04-23T07:50:55;100580.53;;;15.61;100.00
69153;BME280;56261;51.580;4.578;2023-04-23T07:53:21;100581.53;;;15.80;100.00
69153;BME280;56261;51.580;4.578;2023-04-23T07:55:46;100587.69;;;15.93;100.00
69153;BME280;56261;51.580;4.578;2023-04-23T07:58:12;100575.34;;;15.52;100.00
69153;BME280;56261;51.580;4.578;2023-04-23T08:00:37;100575.53;;;15.64;100.00
69153;BME280;56261;51.580;4.578;2023-04-23T08:03:03;100580.09;;;15.84;100.00
69153;BME280;56261;51.580;4.578;2023-04-23T08:05:28;100584.63;;;16.42;100.00
69153;BME280;56261;51.580;4.578;2023-04-23T08:07:54;100591.56;;;16.17;100.00
69153;BME280;56261;51.580;4.578;2023-04-23T08:10:19;100587.28;;;16.03;100.00
69153;BME280;56261;51.580;4.578;2023-04-23T08:12:44;100582.66;;;16.17;100.00
69153;BME280;56261;51.580;4.578;2023-04-23T08:15:10;100586.47;;;15.83;100.00
69153;BME280;56261;51.580;4.578;2023-04-23T08:17:36;100588.81;;;15.19;100.00
69153;BME280;56261;51.580;4.578;2023-04-23T08:20:03;100582.34;;;15.60;100.00
69153;BME280;56261;51.580;4.578;2023-04-23T08:22:28;100583.00;;;15.35;100.00
69153;BME280;56261;51.580;4.578;2023-04-23T08:24:53;100582.78;;;15.57;100.00
69153;BME280;56261;51.580;4.578;2023-04-23T08:27:19;100587.97;;;15.79;100.00
69153;BME280;56261;51.580;4.578;2023-04-23T08:29:45;100585.84;;;15.87;100.00
69153;BME280;56261;51.580;4.578;2023-04-23T08:32:10;100584.53;;;16.16;100.00
69153;BME280;56261;51.580;4.578;2023-04-23T08:34:35;100583.19;;;16.77;100.00
69153;BME280;56261;51.580;4.578;2023-04-23T08:37:01;100578.78;;;16.90;100.00
69153;BME280;56261;51.580;4.578;2023-04-23T08:39:27;100585.25;;;16.82;100.00
69153;BME280;56261;51.580;4.578;2023-04-23T08:41:57;100591.97;;;16.66;100.00
69153;BME280;56261;51.580;4.578;2023-04-23T08:44:29;100584.50;;;16.68;100.00
69153;BME280;56261;51.580;4.578;2023-04-23T08:46:57;100571.03;;;16.30;100.00
69153;BME280;56261;51.580;4.578;2023-04-23T08:49:27;100576.22;;;16.63;100.00
69153;BME280;56261;51.580;4.578;2023-04-23T08:52:03;100576.28;;;16.95;100.00
69153;BME280;56261;51.580;4.578;2023-04-23T08:54:33;100587.53;;;17.60;100.00
69153;BME280;56261;51.580;4.578;2023-04-23T08:57:00;100583.59;;;17.81;100.00
69153;BME280;56261;51.580;4.578;2023-04-23T08:59:29;100590.97;;;16.54;100.00
69153;BME280;56261;51.580;4.578;2023-04-23T09:01:54;100590.88;;;16.74;100.00
69153;BME280;56261;51.580;4.578;2023-04-23T09:04:21;100575.88;;;17.16;100.00
69153;BME280;56261;51.580;4.578;2023-04-23T09:06:48;100572.00;;;17.37;100.00
69153;BME280;56261;51.580;4.578;2023-04-23T09:09:15;100579.84;;;17.39;100.00
69153;BME280;56261;51.580;4.578;2023-04-23T09:11:42;100579.34;;;16.98;100.00
69153;BME280;56261;51.580;4.578;2023-04-23T09:14:08;100575.28;;;17.14;100.00
69153;BME280;56261;51.580;4.578;2023-04-23T09:16:34;100585.72;;;17.29;100.00
69153;BME280;56261;51.580;4.578;2023-04-23T09:19:00;100571.63;;;16.70;100.00
69153;BME280;56261;51.580;4.578;2023-04-23T09:21:25;100581.44;;;16.58;100.00
69153;BME280;56261;51.580;4.578;2023-04-23T09:23:51;100567.84;;;17.10;100.00
69153;BME280;56261;51.580;4.578;2023-04-23T09:26:20;100566.47;;;17.51;100.00
69153;BME280;56261;51.580;4.578;2023-04-23T09:28:48;100565.75;;;17.80;100.00
69153;BME280;56261;51.580;4.578;2023-04-23T09:31:24;100568.25;;;17.82;100.00
69153;BME280;56261;51.580;4.578;2023-04-23T09:33:53;100570.00;;;17.51;100.00
69153;BME280;56261;51.580;4.578;2023-04-23T09:36:22;100575.59;;;17.50;100.00
69153;BME280;56261;51.580;4.578;2023-04-23T09:38:49;100564.84;;;17.25;100.00
69153;BME280;56261;51.580;4.578;2023-04-23T09:41:24;100570.13;;;16.74;100.00
69153;BME280;56261;51.580;4.578;2023-04-23T09:43:56;100568.53;;;16.67;100.00
69153;BME280;56261;51.580;4.578;2023-04-23T09:46:40;100561.81;;;16.51;100.00
69153;BME280;56261;51.580;4.578;2023-04-23T09:49:19;100557.59;;;16.62;100.00
69153;BME280;56261;51.580;4.578;2023-04-23T09:51:48;100561.91;;;16.31;100.00
69153;BME280;56261;51.580;4.578;2023-04-23T09:54:19;100558.38;;;16.30;100.00
69153;BME280;56261;51.580;4.578;2023-04-23T09:56:50;100555.69;;;16.30;100.00
69153;BME280;56261;51.580;4.578;2023-04-23T09:59:21;100550.16;;;16.18;100.00
69153;BME280;56261;51.580;4.578;2023-04-23T10:01:47;100557.69;;;16.03;100.00
69153;BME280;56261;51.580;4.578;2023-04-23T10:04:16;100540.78;;;16.34;100.00
69153;BME280;56261;51.580;4.578;2023-04-23T10:06:43;100546.94;;;16.42;100.00
69153;BME280;56261;51.580;4.578;2023-04-23T10:09:08;100537.00;;;16.42;100.00
69153;BME280;56261;51.580;4.578;2023-04-23T10:11:34;100534.75;;;16.39;100.00
69153;BME280;56261;51.580;4.578;2023-04-23T10:13:59;100533.16;;;16.56;100.00
69153;BME280;56261;51.580;4.578;2023-04-23T10:16:25;100541.03;;;16.58;100.00
69153;BME280;56261;51.580;4.578;2023-04-23T10:18:51;100537.56;;;16.51;100.00
69153;BME280;56261;51.580;4.578;2023-04-23T10:21:18;100536.34;;;16.78;100.00
69153;BME280;56261;51.580;4.578;2023-04-23T10:23:46;100545.88;;;16.43;100.00
69153;BME280;56261;51.580;4.578;2023-04-23T10:26:14;100536.69;;;16.18;100.00
69153;BME280;56261;51.580;4.578;2023-04-23T10:28:44;100538.63;;;16.05;100.00
69153;BME280;56261;51.580;4.578;2023-04-23T10:31:11;100546.09;;;15.96;100.00
69153;BME280;56261;51.580;4.578;2023-04-23T10:33:37;100534.66;;;16.07;100.00
69153;BME280;56261;51.580;4.578;2023-04-23T10:36:03;100537.56;;;16.12;100.00
69153;BME280;56261;51.580;4.578;2023-04-23T10:38:29;100525.81;;;16.38;100.00
69153;BME280;56261;51.580;4.578;2023-04-23T10:40:56;100521.66;;;16.74;100.00
69153;BME280;56261;51.580;4.578;2023-04-23T10:43:23;100518.97;;;16.74;100.00
69153;BME280;56261;51.580;4.578;2023-04-23T10:45:49;100513.63;;;16.99;100.00
69153;BME280;56261;51.580;4.578;2023-04-23T10:48:14;100497.19;;;17.08;100.00
69153;BME280;56261;51.580;4.578;2023-04-23T10:50:41;100514.69;;;17.24;100.00
69153;BME280;56261;51.580;4.578;2023-04-23T10:53:17;100504.03;;;17.29;100.00
69153;BME280;56261;51.580;4.578;2023-04-23T10:55:44;100496.34;;;17.07;100.00
69153;BME280;56261;51.580;4.578;2023-04-23T10:58:09;100501.47;;;17.15;100.00
69153;BME280;56261;51.580;4.578;2023-04-23T11:03:38;100500.59;;;16.96;100.00
69153;BME280;56261;51.580;4.578;2023-04-23T11:06:07;100494.41;;;17.14;100.00
69153;BME280;56261;51.580;4.578;2023-04-23T11:08:36;100492.47;;;16.71;100.00
69153;BME280;56261;51.580;4.578;2023-04-23T11:11:06;100482.84;;;16.89;100.00
69153;BME280;56261;51.580;4.578;2023-04-23T11:13:32;100481.31;;;16.99;100.00
69153;BME280;56261;51.580;4.578;2023-04-23T11:18:58;100470.34;;;16.94;100.00
69153;BME280;56261;51.580;4.578;2023-04-23T11:21:55;100465.16;;;17.18;100.00
69153;BME280;56261;51.580;4.578;2023-04-23T11:24:34;100455.72;;;17.09;100.00
69153;BME280;56261;51.580;4.578;2023-04-23T11:27:04;100455.06;;;17.13;100.00
69153;BME280;56261;51.580;4.578;2023-04-23T11:29:30;100448.53;;;17.02;100.00
69153;BME280;56261;51.580;4.578;2023-04-23T11:31:56;100446.03;;;17.01;100.00
69153;BME280;56261;51.580;4.578;2023-04-23T11:34:22;100433.47;;;16.95;100.00
69153;BME280;56261;51.580;4.578;2023-04-23T11:36:53;100438.31;;;16.86;100.00
69153;BME280;56261;51.580;4.578;2023-04-23T11:39:20;100432.16;;;16.79;100.00
69153;BME280;56261;51.580;4.578;2023-04-23T11:41:45;100437.72;;;16.84;100.00
69153;BME280;56261;51.580;4.578;2023-04-23T11:44:11;100429.56;;;16.66;100.00
69153;BME280;56261;51.580;4.578;2023-04-23T11:46:37;100428.44;;;16.73;100.00
69153;BME280;56261;51.580;4.578;2023-04-23T11:49:02;100414.91;;;17.05;100.00
69153;BME280;56261;51.580;4.578;2023-04-23T11:51:28;100416.03;;;16.97;100.00
69153;BME280;56261;51.580;4.578;2023-04-23T11:53:53;100419.28;;;16.81;100.00
69153;BME280;56261;51.580;4.578;2023-04-23T11:56:19;100417.03;;;16.53;100.00
69153;BME280;56261;51.580;4.578;2023-04-23T11:58:45;100414.53;;;16.51;100.00
69153;BME280;56261;51.580;4.578;2023-04-23T12:01:10;100407.84;;;16.35;100.00
69153;BME280;56261;51.580;4.578;2023-04-23T12:03:39;100412.72;;;16.45;100.00
69153;BME280;56261;51.580;4.578;2023-04-23T12:06:05;100413.53;;;16.21;100.00
69153;BME280;56261;51.580;4.578;2023-04-23T12:08:34;100405.72;;;16.12;100.00
69153;BME280;56261;51.580;4.578;2023-04-23T12:11:02;100406.16;;;16.09;100.00
69153;BME280;56261;51.580;4.578;2023-04-23T12:13:31;100402.91;;;16.32;100.00
69153;BME280;56261;51.580;4.578;2023-04-23T12:16:04;100396.16;;;16.48;100.00
69153;BME280;56261;51.580;4.578;2023-04-23T12:18:40;100398.22;;;16.46;100.00
69153;BME280;56261;51.580;4.578;2023-04-23T12:21:07;100401.75;;;15.83;100.00
69153;BME280;56261;51.580;4.578;2023-04-23T12:23:33;100409.25;;;15.74;100.00
69153;BME280;56261;51.580;4.578;2023-04-23T12:26:00;100400.56;;;15.72;100.00
69153;BME280;56261;51.580;4.578;2023-04-23T12:28:27;100392.00;;;15.89;100.00
69153;BME280;56261;51.580;4.578;2023-04-23T12:30:58;100396.03;;;16.05;100.00
69153;BME280;56261;51.580;4.578;2023-04-23T12:33:30;100385.88;;;16.07;100.00
69153;BME280;56261;51.580;4.578;2023-04-23T12:35:56;100382.72;;;15.85;100.00
69153;BME280;56261;51.580;4.578;2023-04-23T12:38:26;100373.16;;;15.89;100.00
69153;BME280;56261;51.580;4.578;2023-04-23T12:40:54;100379.09;;;15.59;100.00
69153;BME280;56261;51.580;4.578;2023-04-23T12:43:20;100371.69;;;15.54;100.00
69153;BME280;56261;51.580;4.578;2023-04-23T12:45:45;100367.28;;;15.60;100.00
69153;BME280;56261;51.580;4.578;2023-04-23T12:48:11;100364.44;;;15.93;100.00